createdAt,value
2019-01-21T00:00:34.047Z,50.92
2019-01-21T00:03:00.308Z,49.15
2019-01-21T00:05:26.547Z,49.80
2019-01-21T00:07:52.715Z,49.15
2019-01-21T00:10:18.880Z,49.27
2019-01-21T00:12:45.044Z,47.43
2019-01-21T00:15:11.577Z,48.70
2019-01-21T00:17:37.622Z,46.85
2019-01-21T00:20:05.453Z,44.33
2019-01-21T00:22:31.548Z,47.93
2019-01-21T00:24:57.588Z,47.30
2019-01-21T00:27:23.634Z,47.15
2019-01-21T00:29:49.742Z,46.75
2019-01-21T00:32:15.789Z,47.50
2019-01-21T00:34:41.841Z,47.98
2019-01-21T00:37:08.032Z,48.02
2019-01-21T00:39:34.113Z,47.58
2019-01-21T00:42:00.337Z,47.60
2019-01-21T00:44:26.373Z,48.65
2019-01-21T00:46:52.520Z,48.28
2019-01-21T00:49:18.618Z,47.75
2019-01-21T00:51:44.668Z,48.40
2019-01-21T00:54:16.589Z,48.02
2019-01-21T00:56:42.649Z,45.80
2019-01-21T00:59:08.710Z,48.55
2019-01-21T01:01:34.799Z,47.58
2019-01-21T01:04:01.063Z,48.50
2019-01-21T01:06:27.182Z,49.50
2019-01-21T01:08:53.221Z,50.35
2019-01-21T01:11:19.276Z,49.83
2019-01-21T01:13:46.153Z,49.98
2019-01-21T01:16:12.698Z,51.27
2019-01-21T01:18:38.754Z,47.85
2019-01-21T01:21:04.834Z,48.10
2019-01-21T01:23:30.886Z,47.58
2019-01-21T01:25:56.992Z,50.35
2019-01-21T01:28:23.054Z,49.75
2019-01-21T01:30:49.094Z,48.73
2019-01-21T01:33:15.290Z,47.10
2019-01-21T01:35:41.596Z,45.97
2019-01-21T01:38:07.822Z,45.80
2019-01-21T01:40:33.907Z,46.58
2019-01-21T01:42:59.936Z,47.25
2019-01-21T01:45:26.382Z,46.85
2019-01-21T01:47:56.500Z,45.48
2019-01-21T01:50:22.957Z,47.40
2019-01-21T01:52:49.316Z,46.63
2019-01-21T01:55:15.341Z,47.27
2019-01-21T01:57:41.374Z,44.88
2019-01-21T02:00:11.139Z,44.60
2019-01-21T02:02:37.171Z,43.23
2019-01-21T02:05:04.126Z,44.75
2019-01-21T02:07:30.277Z,43.90
2019-01-21T02:09:56.393Z,43.57
2019-01-21T02:12:22.457Z,44.45
2019-01-21T02:14:48.501Z,44.60
2019-01-21T02:17:14.949Z,44.90
2019-01-21T02:19:42.218Z,43.83
2019-01-21T02:22:08.368Z,42.73
2019-01-21T02:24:35.702Z,44.10
2019-01-21T02:27:03.619Z,44.77
2019-01-21T02:29:51.676Z,44.27
2019-01-21T02:32:33.708Z,41.92
2019-01-21T02:35:09.422Z,43.68
2019-01-21T02:37:41.798Z,43.90
2019-01-21T02:40:17.616Z,43.70
2019-01-21T02:43:04.145Z,41.58
2019-01-21T02:45:55.239Z,43.38
2019-01-21T02:48:25.941Z,44.10
2019-01-21T02:50:55.771Z,44.03
2019-01-21T02:53:31.733Z,44.95
2019-01-21T02:56:07.826Z,43.70
2019-01-21T02:58:47.018Z,43.68
2019-01-21T03:01:33.716Z,42.00
2019-01-21T03:04:20.698Z,41.98
2019-01-21T03:06:56.334Z,43.13
2019-01-21T03:09:44.945Z,43.50
2019-01-21T03:12:23.649Z,44.60
2019-01-21T03:15:13.256Z,45.12
2019-01-21T03:18:07.952Z,44.50
2019-01-21T03:20:49.965Z,42.75
2019-01-21T03:23:22.929Z,43.13
2019-01-21T03:26:00.471Z,42.98
2019-01-21T03:28:30.343Z,41.33
2019-01-21T03:31:18.816Z,42.78
2019-01-21T03:33:48.652Z,44.42
2019-01-21T03:36:35.579Z,43.70
2019-01-21T03:39:08.434Z,42.80
2019-01-21T03:41:40.922Z,42.70
2019-01-21T03:44:19.480Z,42.73
2019-01-21T03:46:55.877Z,42.73
2019-01-21T03:49:31.361Z,42.83
2019-01-21T03:52:03.983Z,43.02
2019-01-21T03:54:31.369Z,42.50
2019-01-21T03:57:01.732Z,42.33
2019-01-21T03:59:34.612Z,43.38
2019-01-21T04:02:21.245Z,43.40
2019-01-21T04:05:03.210Z,41.77
2019-01-21T04:07:49.836Z,43.58
2019-01-21T04:10:19.798Z,42.83
2019-01-21T04:12:52.587Z,43.10
2019-01-21T04:15:41.491Z,44.10
2019-01-21T04:18:24.353Z,42.88
2019-01-21T04:21:00.736Z,42.50
2019-01-21T04:23:30.582Z,43.08
2019-01-21T04:26:12.887Z,41.60
2019-01-21T04:29:11.921Z,39.98
2019-01-21T04:31:50.747Z,40.75
2019-01-21T04:34:26.727Z,40.03
2019-01-21T04:36:59.586Z,40.23
2019-01-21T04:39:50.860Z,41.02
2019-01-21T04:42:21.124Z,38.02
2019-01-21T04:44:55.321Z,39.03
2019-01-21T04:47:33.874Z,41.35
2019-01-21T04:50:26.621Z,40.48
2019-01-21T04:53:03.281Z,42.20
2019-01-21T04:55:42.153Z,39.35
2019-01-21T04:58:29.210Z,39.47
2019-01-21T05:01:19.998Z,39.13
2019-01-21T05:03:52.717Z,41.05
2019-01-21T05:06:34.897Z,39.60
2019-01-21T05:09:14.124Z,40.33
2019-01-21T05:12:15.666Z,38.92
2019-01-21T05:14:57.342Z,39.20
2019-01-21T05:17:27.268Z,38.48
2019-01-21T05:20:17.044Z,39.13
2019-01-21T05:23:06.819Z,40.40
2019-01-21T05:25:52.083Z,36.80
2019-01-21T05:28:24.834Z,37.05
2019-01-21T05:30:54.676Z,40.60
2019-01-21T05:33:27.824Z,37.47
2019-01-21T05:36:15.571Z,38.38
2019-01-21T05:39:06.823Z,37.37
2019-01-21T05:41:54.742Z,36.00
2019-01-21T05:44:44.561Z,39.08
2019-01-21T05:47:32.049Z,37.73
2019-01-21T05:50:30.431Z,35.70
2019-01-21T05:53:12.497Z,37.25
2019-01-21T05:55:57.492Z,37.20
2019-01-21T05:58:45.523Z,34.33
2019-01-21T06:01:34.641Z,37.60
2019-01-21T06:04:16.416Z,37.15
2019-01-21T06:06:52.040Z,36.25
2019-01-21T06:09:31.140Z,36.07
2019-01-21T06:12:19.069Z,34.83
2019-01-21T06:15:08.621Z,37.03
2019-01-21T06:17:43.848Z,36.90
2019-01-21T06:20:40.595Z,35.48
2019-01-21T06:23:28.888Z,36.03
2019-01-21T06:25:58.762Z,36.10
2019-01-21T06:28:31.356Z,34.90
2019-01-21T06:31:21.103Z,35.70
2019-01-21T06:34:06.309Z,38.08
2019-01-21T06:36:39.171Z,36.30
2019-01-21T06:39:35.124Z,37.80
2019-01-21T06:42:32.139Z,37.55
2019-01-21T06:45:08.031Z,37.58
2019-01-21T06:48:01.179Z,38.58
2019-01-21T06:50:31.143Z,38.98
2019-01-21T06:53:01.577Z,40.03
2019-01-21T06:55:37.668Z,40.03
2019-01-21T06:58:22.662Z,39.35
2019-01-21T07:01:24.596Z,41.15
2019-01-21T07:04:10.996Z,40.98
2019-01-21T07:09:34.586Z,38.80
2019-01-21T07:12:14.916Z,40.80
2019-01-21T07:15:15.413Z,40.20
2019-01-21T07:17:51.464Z,40.45
2019-01-21T07:20:39.410Z,39.20
2019-01-21T07:23:23.757Z,40.30
2019-01-21T07:26:03.758Z,39.23
2019-01-21T07:29:07.081Z,41.33
2019-01-21T07:31:36.980Z,40.37
2019-01-21T07:34:23.594Z,40.25
2019-01-21T07:36:53.420Z,38.55
2019-01-21T07:39:35.314Z,39.33
2019-01-21T07:42:14.000Z,40.77
2019-01-21T07:44:52.428Z,39.13
2019-01-21T07:47:28.507Z,40.78
2019-01-21T07:50:16.560Z,39.33
2019-01-21T07:53:21.540Z,41.03
2019-01-21T07:56:03.708Z,41.10
2019-01-21T07:58:42.196Z,42.40
2019-01-21T08:01:20.888Z,40.45
2019-01-21T08:04:13.477Z,41.00
2019-01-21T08:06:58.750Z,40.08
2019-01-21T08:09:40.318Z,39.83
2019-01-21T08:12:25.105Z,41.25
2019-01-21T08:15:19.101Z,40.58
2019-01-21T08:18:17.355Z,41.73
2019-01-21T08:20:53.053Z,40.52
2019-01-21T08:23:30.423Z,39.10
2019-01-21T08:26:03.088Z,40.15
2019-01-21T08:28:38.594Z,38.95
2019-01-21T08:31:11.383Z,38.65
2019-01-21T08:33:50.540Z,38.25
2019-01-21T08:36:23.385Z,37.85
2019-01-21T08:38:56.260Z,37.67
2019-01-21T08:41:47.131Z,37.85
2019-01-21T08:44:20.114Z,38.50
2019-01-21T08:46:55.286Z,37.40
2019-01-21T08:49:33.766Z,36.68
2019-01-21T08:52:44.445Z,38.10
2019-01-21T08:55:41.069Z,37.07
2019-01-21T08:58:13.719Z,35.92
2019-01-21T09:01:03.345Z,36.13
2019-01-21T09:03:49.927Z,36.75
2019-01-21T09:06:19.804Z,35.35
2019-01-21T09:08:55.848Z,34.80
2019-01-21T09:11:42.593Z,36.08
2019-01-21T09:14:24.242Z,36.48
2019-01-21T09:17:03.393Z,36.58
2019-01-21T09:19:45.580Z,36.10
2019-01-21T09:22:15.437Z,36.57
2019-01-21T09:24:53.829Z,35.90
2019-01-21T09:27:23.704Z,34.20
2019-01-21T09:29:56.324Z,42.88
2019-01-21T09:32:41.536Z,35.10
2019-01-21T09:35:11.407Z,34.40
2019-01-21T09:37:47.027Z,35.20
2019-01-21T09:40:36.812Z,35.20
2019-01-21T09:43:06.688Z,35.08
2019-01-21T09:45:48.178Z,32.85
2019-01-21T09:48:14.023Z,34.55
2019-01-21T09:50:41.573Z,33.90
2019-01-21T09:53:07.830Z,34.08
2019-01-21T09:55:37.091Z,33.58
2019-01-21T09:58:05.986Z,34.70
2019-01-21T10:00:32.228Z,33.83
2019-01-21T10:02:59.065Z,33.20
2019-01-21T10:05:28.531Z,32.80
2019-01-21T10:08:10.145Z,32.93
2019-01-21T10:10:42.865Z,32.42
2019-01-21T10:13:35.822Z,32.65
2019-01-21T10:16:21.320Z,32.53
2019-01-21T10:19:03.022Z,32.48
2019-01-21T10:21:39.557Z,32.95
2019-01-21T10:24:24.376Z,31.52
2019-01-21T10:27:09.696Z,30.65
2019-01-21T10:29:45.012Z,32.80
2019-01-21T10:32:37.913Z,32.00
2019-01-21T10:35:13.744Z,31.20
2019-01-21T10:37:46.322Z,32.43
2019-01-21T10:40:43.533Z,31.60
2019-01-21T10:43:45.449Z,32.43
2019-01-21T10:46:19.240Z,31.02
2019-01-21T10:49:01.081Z,32.40
2019-01-21T10:51:49.349Z,33.88
2019-01-21T10:54:19.190Z,33.63
2019-01-21T10:56:54.824Z,33.07
2019-01-21T10:59:58.676Z,32.90
2019-01-21T11:02:40.000Z,32.40
2019-01-21T11:05:24.772Z,32.23
2019-01-21T11:08:06.165Z,32.28
2019-01-21T11:10:44.914Z,31.25
2019-01-21T11:13:40.671Z,30.62
2019-01-21T11:16:10.553Z,30.32
2019-01-21T11:18:55.836Z,30.30
2019-01-21T11:21:28.637Z,30.02
2019-01-21T11:24:04.702Z,30.17
2019-01-21T11:26:34.572Z,30.35
2019-01-21T11:29:15.855Z,28.10
2019-01-21T11:31:45.805Z,29.32
2019-01-21T11:34:21.329Z,29.00
2019-01-21T11:37:09.717Z,29.27
2019-01-21T11:39:55.093Z,29.30
2019-01-21T11:42:30.718Z,27.50
2019-01-21T11:45:18.692Z,27.82
2019-01-21T11:48:17.636Z,28.85
2019-01-21T11:50:50.349Z,28.10
2019-01-21T11:53:22.729Z,28.55
2019-01-21T11:55:53.198Z,29.05
2019-01-21T12:01:09.781Z,27.65
2019-01-21T12:03:51.461Z,27.22
2019-01-21T12:06:21.289Z,25.72
2019-01-21T12:08:54.137Z,26.02
2019-01-21T12:11:26.990Z,27.45
2019-01-21T12:14:30.697Z,27.25
2019-01-21T12:17:12.492Z,27.17
2019-01-21T12:19:48.530Z,28.30
2019-01-21T12:22:24.338Z,27.98
2019-01-21T12:24:53.574Z,26.85
2019-01-21T12:27:23.444Z,27.90
2019-01-21T12:30:10.768Z,28.27
2019-01-21T12:32:52.688Z,27.22
2019-01-21T12:35:25.147Z,27.13
2019-01-21T12:38:16.808Z,28.15
2019-01-21T12:41:12.707Z,25.40
2019-01-21T12:43:48.681Z,26.60
2019-01-21T12:46:19.378Z,26.20
2019-01-21T12:49:07.845Z,25.43
2019-01-21T12:51:44.128Z,25.25
2019-01-21T12:54:22.846Z,25.53
2019-01-21T12:57:25.479Z,26.12
2019-01-21T12:59:56.099Z,25.92
2019-01-21T13:02:45.043Z,24.60
2019-01-21T13:05:17.804Z,25.00
2019-01-21T13:07:53.194Z,25.10
2019-01-21T13:10:25.880Z,25.90
2019-01-21T13:13:01.474Z,25.05
2019-01-21T13:15:37.416Z,27.00
2019-01-21T13:18:07.304Z,25.97
2019-01-21T13:20:40.328Z,26.90
2019-01-21T13:23:10.216Z,26.02
2019-01-21T13:25:48.917Z,26.23
2019-01-21T13:28:24.632Z,26.10
2019-01-21T13:31:03.776Z,26.90
2019-01-21T13:33:52.167Z,26.02
2019-01-21T13:36:27.833Z,27.30
2019-01-21T13:39:00.950Z,26.90
2019-01-21T13:41:31.004Z,26.57
2019-01-21T13:44:09.753Z,26.95
2019-01-21T13:46:51.828Z,26.42
2019-01-21T13:49:37.144Z,27.22
2019-01-21T13:52:34.217Z,27.62
2019-01-21T13:55:25.467Z,26.10
2019-01-21T13:58:09.906Z,26.62
2019-01-21T14:00:45.558Z,26.52
2019-01-21T14:03:30.548Z,36.58
2019-01-21T14:06:01.086Z,32.17
2019-01-21T14:08:48.951Z,32.67
2019-01-21T14:11:30.620Z,31.75
2019-01-21T14:14:03.181Z,27.60
2019-01-21T14:16:44.553Z,27.10
2019-01-21T14:19:29.647Z,27.93
2019-01-21T14:22:34.486Z,27.42
2019-01-21T14:25:22.633Z,27.67
2019-01-21T14:28:15.400Z,27.00
2019-01-21T14:31:05.658Z,26.55
2019-01-21T14:33:35.885Z,27.80
2019-01-21T14:36:05.870Z,27.00
2019-01-21T14:38:35.718Z,27.32
2019-01-21T14:41:05.586Z,28.02
2019-01-21T14:43:50.153Z,26.73
2019-01-21T14:46:36.346Z,28.10
2019-01-21T14:49:06.388Z,27.40
2019-01-21T14:51:36.359Z,29.80
2019-01-21T14:54:15.519Z,27.60
2019-01-21T14:56:58.472Z,27.70
2019-01-21T14:59:31.342Z,29.92
2019-01-21T15:02:17.771Z,28.38
2019-01-21T15:04:59.349Z,28.07
2019-01-21T15:07:29.212Z,29.00
2019-01-21T15:10:28.168Z,28.45
2019-01-21T15:12:58.043Z,29.30
2019-01-21T15:15:37.017Z,38.05
2019-01-21T15:18:35.445Z,53.47
2019-01-21T15:21:16.944Z,30.52
2019-01-21T15:23:55.743Z,28.95
2019-01-21T15:26:31.443Z,28.67
2019-01-21T15:29:10.516Z,27.60
2019-01-21T15:31:49.252Z,28.17
2019-01-21T15:34:28.190Z,27.80
2019-01-21T15:36:58.303Z,27.32
2019-01-21T15:39:36.686Z,27.90
2019-01-21T15:42:41.553Z,28.25
2019-01-21T15:45:20.490Z,27.93
2019-01-21T15:47:50.417Z,28.23
2019-01-21T15:50:20.352Z,27.90
2019-01-21T15:52:50.244Z,27.93
2019-01-21T15:55:20.092Z,27.10
2019-01-21T15:57:49.927Z,27.17
2019-01-21T16:00:22.658Z,27.98
2019-01-21T16:03:07.042Z,27.17
2019-01-21T16:05:40.029Z,26.80
2019-01-21T16:08:09.884Z,27.30
2019-01-21T16:10:57.405Z,28.00
2019-01-21T16:13:27.286Z,26.65
2019-01-21T16:16:24.502Z,27.43
2019-01-21T16:18:54.433Z,27.60
2019-01-21T16:21:50.489Z,26.25
2019-01-21T16:24:32.712Z,27.35
2019-01-21T16:27:08.360Z,27.10
2019-01-21T16:29:46.955Z,26.42
2019-01-21T16:32:13.628Z,26.77
2019-01-21T16:34:55.254Z,27.20
2019-01-21T16:37:47.284Z,26.90
2019-01-21T16:40:29.077Z,26.80
2019-01-21T16:42:55.116Z,27.70
2019-01-21T16:45:21.178Z,26.82
2019-01-21T16:47:47.307Z,27.37
2019-01-21T16:50:13.654Z,26.97
2019-01-21T16:52:39.695Z,26.82
2019-01-21T16:55:09.137Z,26.42
2019-01-21T16:57:35.281Z,25.90
2019-01-21T17:00:01.438Z,26.42
2019-01-21T17:02:27.610Z,26.30
2019-01-21T17:04:53.681Z,27.70
2019-01-21T17:07:19.733Z,27.25
2019-01-21T17:09:45.933Z,26.73
2019-01-21T17:12:13.792Z,27.35
2019-01-21T17:14:39.820Z,26.77
2019-01-21T17:17:05.904Z,26.65
2019-01-21T17:19:31.953Z,26.62
2019-01-21T17:21:58.113Z,26.05
2019-01-21T17:24:24.160Z,25.68
2019-01-21T17:26:50.248Z,27.15
2019-01-21T17:29:18.225Z,26.50
2019-01-21T17:31:44.252Z,26.55
2019-01-21T17:34:10.384Z,27.17
2019-01-21T17:36:36.443Z,27.52
2019-01-21T17:39:05.713Z,26.55
2019-01-21T17:41:31.788Z,27.42
2019-01-21T17:43:57.847Z,26.60
2019-01-21T17:46:23.900Z,26.70
2019-01-21T17:48:50.070Z,26.73
2019-01-21T17:51:16.094Z,26.35
2019-01-21T17:53:42.141Z,26.52
2019-01-21T17:56:08.207Z,26.95
2019-01-21T17:58:34.256Z,27.07
2019-01-21T18:01:00.293Z,27.37
2019-01-21T18:03:26.425Z,26.15
2019-01-21T18:05:52.474Z,27.80
2019-01-21T18:08:18.957Z,27.42
2019-01-21T18:10:44.998Z,27.00
2019-01-21T18:13:11.326Z,26.20
2019-01-21T18:15:37.535Z,27.52
2019-01-21T18:18:03.662Z,26.35
2019-01-21T18:20:29.710Z,27.17
2019-01-21T18:22:55.898Z,27.00
2019-01-21T18:25:21.965Z,26.57
2019-01-21T18:27:48.364Z,27.40
2019-01-21T18:30:17.585Z,28.07
2019-01-21T18:32:43.609Z,30.10
2019-01-21T18:35:10.916Z,27.90
2019-01-21T18:37:37.222Z,27.60
2019-01-21T18:40:07.214Z,28.15
2019-01-21T18:42:33.477Z,26.82
2019-01-21T18:44:59.560Z,27.50
2019-01-21T18:47:25.649Z,27.37
2019-01-21T18:49:51.702Z,27.25
2019-01-21T18:52:17.964Z,26.93
2019-01-21T18:54:44.072Z,28.35
2019-01-21T18:57:10.204Z,28.62
2019-01-21T18:59:36.268Z,28.73
2019-01-21T19:02:02.497Z,28.00
2019-01-21T19:04:28.628Z,29.02
2019-01-21T19:06:54.709Z,28.75
2019-01-21T19:09:20.869Z,27.90
2019-01-21T19:11:47.004Z,28.13
2019-01-21T19:14:13.935Z,28.25
2019-01-21T19:16:40.067Z,29.07
2019-01-21T19:19:06.125Z,29.42
2019-01-21T19:21:32.316Z,28.97
2019-01-21T19:23:58.570Z,28.67
2019-01-21T19:26:24.633Z,28.75
2019-01-21T19:28:50.661Z,29.27
2019-01-21T19:31:16.718Z,28.00
2019-01-21T19:33:42.846Z,28.37
2019-01-21T19:36:08.965Z,27.82
2019-01-21T19:38:34.996Z,28.77
2019-01-21T19:41:01.079Z,28.92
2019-01-21T19:43:27.131Z,29.53
2019-01-21T19:45:57.845Z,28.23
2019-01-21T19:48:24.909Z,29.02
2019-01-21T19:50:50.934Z,27.73
2019-01-21T19:53:17.203Z,29.42
2019-01-21T19:55:43.465Z,28.50
2019-01-21T19:58:09.604Z,29.52
2019-01-21T20:00:35.776Z,29.85
2019-01-21T20:03:02.050Z,28.23
2019-01-21T20:05:28.377Z,30.55
2019-01-21T20:07:54.534Z,28.10
2019-01-21T20:10:22.501Z,28.27
2019-01-21T20:12:48.730Z,28.25
2019-01-21T20:15:18.329Z,28.02
2019-01-21T20:17:44.516Z,28.32
2019-01-21T20:20:20.328Z,28.80
2019-01-21T20:22:46.464Z,28.92
2019-01-21T20:25:13.215Z,27.77
2019-01-21T20:27:39.444Z,27.95
2019-01-21T20:30:20.303Z,27.98
2019-01-21T20:32:46.432Z,28.92
2019-01-21T20:35:13.326Z,29.10
2019-01-21T20:37:39.805Z,30.02
2019-01-21T20:40:12.325Z,29.63
2019-01-21T20:42:38.474Z,28.60
2019-01-21T20:45:08.112Z,29.02
2019-01-21T20:47:34.974Z,28.25
2019-01-21T20:50:01.108Z,27.93
2019-01-21T20:52:27.152Z,29.15
2019-01-21T20:54:53.197Z,28.67
2019-01-21T20:57:21.310Z,30.15
2019-01-21T20:59:47.385Z,29.37
2019-01-21T21:02:13.423Z,29.72
2019-01-21T21:04:39.875Z,28.92
2019-01-21T21:07:05.929Z,29.60
2019-01-21T21:09:31.983Z,29.55
2019-01-21T21:11:58.094Z,29.57
2019-01-21T21:14:24.149Z,31.30
2019-01-21T21:16:53.436Z,31.17
2019-01-21T21:19:19.676Z,30.47
2019-01-21T21:21:45.817Z,31.40
2019-01-21T21:24:12.229Z,31.97
2019-01-21T21:26:38.289Z,32.45
2019-01-21T21:29:04.470Z,32.05
2019-01-21T21:31:30.580Z,32.05
2019-01-21T21:33:57.003Z,32.93
2019-01-21T21:36:23.174Z,32.67
2019-01-21T21:38:49.394Z,33.00
2019-01-21T21:41:17.451Z,33.35
2019-01-21T21:43:43.552Z,33.88
2019-01-21T21:46:09.600Z,34.08
2019-01-21T21:48:36.000Z,33.28
2019-01-21T21:51:02.210Z,32.00
2019-01-21T21:53:28.704Z,37.35
2019-01-21T21:55:54.982Z,34.27
2019-01-21T21:58:21.146Z,35.30
2019-01-21T22:00:47.221Z,33.48
2019-01-21T22:03:13.395Z,34.63
2019-01-21T22:05:39.473Z,35.10
2019-01-21T22:08:05.592Z,34.85
2019-01-21T22:10:32.091Z,34.30
2019-01-21T22:12:58.238Z,32.85
2019-01-21T22:15:24.447Z,36.38
2019-01-21T22:17:50.603Z,35.03
2019-01-21T22:20:19.096Z,36.05
2019-01-21T22:22:45.178Z,36.85
2019-01-21T22:25:11.428Z,41.05
2019-01-21T22:27:37.483Z,39.05
2019-01-21T22:30:13.368Z,41.03
2019-01-21T22:32:39.572Z,40.08
2019-01-21T22:35:06.595Z,39.45
2019-01-21T22:37:32.713Z,41.43
2019-01-21T22:39:59.228Z,40.15
2019-01-21T22:42:25.344Z,42.25
2019-01-21T22:44:51.380Z,41.13
2019-01-21T22:47:17.424Z,41.80
2019-01-21T22:49:43.482Z,41.95
2019-01-21T22:52:09.606Z,43.33
2019-01-21T22:54:35.676Z,46.42
2019-01-21T22:57:02.047Z,44.75
2019-01-21T22:59:33.252Z,41.30
2019-01-21T23:01:59.288Z,41.15
2019-01-21T23:04:25.363Z,39.63
2019-01-21T23:06:51.487Z,38.10
2019-01-21T23:09:17.516Z,38.88
2019-01-21T23:11:44.241Z,37.80
2019-01-21T23:14:18.742Z,37.57
2019-01-21T23:16:44.793Z,37.13
2019-01-21T23:19:10.831Z,37.55
2019-01-21T23:21:38.501Z,38.80
2019-01-21T23:24:04.741Z,39.20
2019-01-21T23:26:31.132Z,38.67
2019-01-21T23:28:57.169Z,38.25
2019-01-21T23:31:23.344Z,39.60
2019-01-21T23:33:49.462Z,39.33
2019-01-21T23:36:15.503Z,39.05
2019-01-21T23:38:41.592Z,41.23
2019-01-21T23:41:07.644Z,42.80
2019-01-21T23:43:33.924Z,38.70
2019-01-21T23:46:03.086Z,39.53
2019-01-21T23:48:29.125Z,38.55
2019-01-21T23:50:55.179Z,39.83
2019-01-21T23:53:21.453Z,39.70
2019-01-21T23:55:47.565Z,37.08
2019-01-21T23:58:13.636Z,38.20
